Time;durP1;ratioP1;P1;durP2;ratioP2;P2;SDS_P1;SDS_P2;PMS_P1;PMS_P2;Temp;Humidity;BMP_temperature;BMP_pressure;BME280_temperature;BME280_humidity;BME280_pressure;Samples;Min_cycle;Max_cycle;Signal;HPM_P1;HPM_P2
2022/04/22 00:00:37;;;;;;;15.25;7.07;;;10.30;99.90;;;;;;5037467;28;20079;-72
2022/04/22 00:03:05;;;;;;;16.42;7.72;;;10.30;99.90;;;;;;5019295;28;20033;-72
2022/04/22 00:05:30;;;;;;;13.30;6.97;;;10.30;99.90;;;;;;5038040;28;20079;-73
2022/04/22 00:07:56;;;;;;;15.23;7.30;;;10.30;99.90;;;;;;5037023;28;20025;-73
2022/04/22 00:10:21;;;;;;;13.68;6.68;;;10.30;99.90;;;;;;5036861;28;20468;-72
2022/04/22 00:12:47;;;;;;;13.45;7.00;;;10.30;99.90;;;;;;5038421;28;20116;-73
2022/04/22 00:15:13;;;;;;;14.70;6.68;;;10.30;99.90;;;;;;5034811;28;20025;-73
2022/04/22 00:17:40;;;;;;;13.68;7.07;;;10.30;99.90;;;;;;5034696;28;20068;-73
2022/04/22 00:20:07;;;;;;;11.50;6.55;;;10.30;99.90;;;;;;5035062;28;20149;-73
2022/04/22 00:22:37;;;;;;;13.63;6.68;;;10.30;99.90;;;;;;5035416;28;20029;-74
2022/04/22 00:25:03;;;;;;;9.43;4.82;;;10.30;99.90;;;;;;5034900;28;20064;-73
2022/04/22 00:27:28;;;;;;;11.55;5.82;;;10.30;99.90;;;;;;5035946;28;20119;-72
2022/04/22 00:29:54;;;;;;;16.05;5.53;;;10.30;99.90;;;;;;5036455;28;20036;-72
2022/04/22 00:32:19;;;;;;;9.23;5.30;;;10.30;99.90;;;;;;5037226;28;20525;-72
2022/04/22 00:34:45;;;;;;;10.80;5.60;;;10.20;99.90;;;;;;5039296;28;20109;-72
2022/04/22 00:37:10;;;;;;;10.15;5.63;;;10.20;99.90;;;;;;5041606;28;20045;-73
2022/04/22 00:39:36;;;;;;;7.35;5.00;;;10.20;99.90;;;;;;5035958;28;20075;-73
2022/04/22 00:42:10;;;;;;;9.63;5.40;;;10.10;99.90;;;;;;5036602;28;20044;-72
2022/04/22 00:44:36;;;;;;;8.90;4.68;;;10.10;99.90;;;;;;5037812;28;20479;-72
2022/04/22 00:47:01;;;;;;;9.43;4.78;;;10.10;99.90;;;;;;5037094;28;20030;-73
2022/04/22 00:49:27;;;;;;;13.10;4.97;;;10.10;99.90;;;;;;5036844;28;20108;-72
2022/04/22 00:51:53;;;;;;;7.28;4.32;;;10.00;99.90;;;;;;5036506;28;20418;-72
2022/04/22 00:54:19;;;;;;;12.45;4.78;;;10.00;99.90;;;;;;5035088;28;20115;-73
2022/04/22 00:56:45;;;;;;;9.13;4.50;;;9.90;99.90;;;;;;5036449;28;20033;-73
2022/04/22 00:59:10;;;;;;;7.32;4.40;;;9.80;99.90;;;;;;5035794;28;20057;-73
2022/04/22 01:01:37;;;;;;;10.55;4.53;;;9.80;99.90;;;;;;5035965;28;20026;-72
2022/04/22 01:09:48;;;;;;;8.43;3.63;;;9.70;99.90;;;;;;5036064;28;20060;-73
2022/04/22 01:12:14;;;;;;;8.18;3.95;;;9.60;99.90;;;;;;5036291;28;20104;-73
2022/04/22 01:14:41;;;;;;;7.88;3.42;;;9.60;99.90;;;;;;5036396;28;20083;-73
2022/04/22 01:17:08;;;;;;;8.88;3.90;;;9.50;99.90;;;;;;5035865;28;20395;-73
2022/04/22 01:19:34;;;;;;;8.93;4.05;;;9.50;99.90;;;;;;5036116;28;20100;-73
2022/04/22 01:22:00;;;;;;;7.75;4.03;;;9.50;99.90;;;;;;5035804;28;20459;-72
2022/04/22 01:24:27;;;;;;;8.20;4.03;;;9.40;99.90;;;;;;5017938;28;20025;-72
2022/04/22 01:26:54;;;;;;;5.05;3.45;;;9.40;99.90;;;;;;5036016;28;20018;-73
2022/04/22 01:29:20;;;;;;;5.93;3.58;;;9.30;99.90;;;;;;5034574;28;20022;-72
2022/04/22 01:31:45;;;;;;;7.20;3.58;;;9.30;99.90;;;;;;5034363;28;20021;-73
2022/04/22 01:34:11;;;;;;;4.72;3.40;;;9.30;99.90;;;;;;5034346;28;20096;-73
2022/04/22 01:36:37;;;;;;;5.15;3.30;;;9.20;99.90;;;;;;5035631;28;20029;-74
2022/04/22 01:39:03;;;;;;;9.30;3.80;;;9.20;99.90;;;;;;5035930;28;20044;-73
2022/04/22 01:41:29;;;;;;;10.82;3.17;;;9.10;99.90;;;;;;5035874;28;20025;-73
2022/04/22 01:43:55;;;;;;;6.10;3.33;;;9.10;99.90;;;;;;5035806;28;20021;-73
2022/04/22 01:46:20;;;;;;;8.88;3.75;;;9.10;99.90;;;;;;5036608;28;20356;-71
2022/04/22 01:48:46;;;;;;;4.55;3.33;;;9.10;99.90;;;;;;5041369;28;20096;-71
2022/04/22 01:51:12;;;;;;;7.25;3.67;;;9.00;99.90;;;;;;5019879;28;20104;-73
2022/04/22 01:53:37;;;;;;;6.93;3.65;;;8.90;99.90;;;;;;5036604;28;20040;-72
2022/04/22 01:56:04;;;;;;;6.68;3.72;;;8.90;99.90;;;;;;5036453;28;20079;-73
2022/04/22 01:58:30;;;;;;;8.25;3.38;;;8.90;99.90;;;;;;5018923;28;20029;-73
2022/04/22 02:00:55;;;;;;;7.20;3.70;;;8.80;99.90;;;;;;5036880;28;20034;-72
2022/04/22 02:03:21;;;;;;;6.15;3.30;;;8.80;99.90;;;;;;5037010;28;20467;-72
2022/04/22 02:05:46;;;;;;;5.53;3.42;;;8.80;99.90;;;;;;5040864;28;20026;-72
2022/04/22 02:08:12;;;;;;;6.28;3.33;;;8.80;99.90;;;;;;5036936;28;20567;-72
2022/04/22 02:10:38;;;;;;;10.23;3.28;;;8.70;99.90;;;;;;5035821;28;20013;-72
2022/04/22 02:13:05;;;;;;;10.30;4.10;;;8.70;99.90;;;;;;5035058;28;20439;-73
2022/04/22 02:15:30;;;;;;;5.45;3.17;;;8.70;99.90;;;;;;5034596;28;20026;-72
2022/04/22 02:17:56;;;;;;;8.82;3.55;;;8.60;99.90;;;;;;5034692;28;20022;-72
2022/04/22 02:20:22;;;;;;;9.82;3.40;;;8.60;99.90;;;;;;5034427;28;20029;-72
2022/04/22 02:22:48;;;;;;;12.40;3.58;;;8.60;99.90;;;;;;5034343;28;20399;-72
2022/04/22 02:25:14;;;;;;;10.32;3.92;;;8.50;99.90;;;;;;5034446;28;20025;-72
2022/04/22 02:30:24;;;;;;;9.23;4.70;;;8.50;99.90;;;;;;5034380;28;20076;-72
2022/04/22 02:32:50;;;;;;;5.88;3.50;;;8.50;99.90;;;;;;5032909;28;20021;-73
2022/04/22 02:35:17;;;;;;;6.07;3.78;;;8.40;99.90;;;;;;5034098;28;20041;-72
2022/04/22 02:37:42;;;;;;;8.18;3.90;;;8.30;99.90;;;;;;5034394;28;20102;-72
2022/04/22 02:40:09;;;;;;;6.25;3.92;;;8.40;99.90;;;;;;5033952;28;20061;-72
2022/04/22 02:45:27;;;;;;;10.65;3.88;;;8.30;99.90;;;;;;5034090;28;20044;-73
2022/04/22 02:47:54;;;;;;;8.50;3.90;;;8.30;99.90;;;;;;5033661;28;20048;-72
2022/04/22 02:50:19;;;;;;;7.03;3.53;;;8.20;99.90;;;;;;5034414;28;20025;-72
2022/04/22 02:52:45;;;;;;;6.88;3.90;;;8.20;99.90;;;;;;5034348;28;20037;-72
2022/04/22 02:55:10;;;;;;;8.10;3.70;;;8.20;99.90;;;;;;5034085;28;20446;-72
2022/04/22 02:57:36;;;;;;;5.70;3.78;;;8.10;99.90;;;;;;5034211;28;20056;-72
2022/04/22 03:00:02;;;;;;;7.97;3.50;;;8.10;99.90;;;;;;5036465;28;20483;-72
2022/04/22 03:02:28;;;;;;;8.57;3.92;;;8.10;99.90;;;;;;5046003;28;20009;-76
2022/04/22 03:04:54;;;;;;;7.32;3.70;;;8.10;99.90;;;;;;5035426;28;20104;-75
2022/04/22 03:07:19;;;;;;;8.40;4.70;;;8.00;99.90;;;;;;5034000;28;20541;-76
2022/04/22 03:09:45;;;;;;;11.13;4.32;;;8.10;99.90;;;;;;5034199;28;20033;-76
2022/04/22 03:12:13;;;;;;;8.82;4.53;;;8.00;99.90;;;;;;5033992;28;20017;-76
2022/04/22 03:14:39;;;;;;;9.77;4.57;;;7.90;99.90;;;;;;5035242;28;20467;-76
2022/04/22 03:17:05;;;;;;;5.20;4.60;;;7.90;99.90;;;;;;5032392;28;20041;-76
2022/04/22 03:19:31;;;;;;;8.55;3.97;;;7.90;99.90;;;;;;5033955;28;20032;-76
2022/04/22 03:21:58;;;;;;;8.52;4.35;;;7.80;99.90;;;;;;5016705;28;20021;-75
2022/04/22 03:24:23;;;;;;;6.40;4.13;;;7.90;99.90;;;;;;5034159;28;20079;-75
2022/04/22 03:26:49;;;;;;;7.53;4.53;;;7.80;99.90;;;;;;5034046;28;20025;-75
2022/04/22 03:29:14;;;;;;;7.45;4.38;;;7.80;99.90;;;;;;5034273;28;20495;-76
2022/04/22 03:31:40;;;;;;;17.88;5.15;;;7.80;99.90;;;;;;5034232;28;20136;-75
2022/04/22 03:34:05;;;;;;;8.02;4.65;;;7.70;99.90;;;;;;5033835;28;20371;-75
2022/04/22 03:36:31;;;;;;;10.23;4.78;;;7.70;99.90;;;;;;5033761;28;20033;-75
2022/04/22 03:38:56;;;;;;;11.45;5.20;;;7.70;99.90;;;;;;5033992;28;20087;-75
2022/04/22 03:41:22;;;;;;;15.07;5.70;;;7.70;99.90;;;;;;5015775;28;20127;-75
2022/04/22 03:43:47;;;;;;;9.07;5.15;;;7.60;99.90;;;;;;5033830;28;20472;-76
2022/04/22 03:46:13;;;;;;;9.05;5.20;;;7.60;99.90;;;;;;5033843;28;20035;-76
2022/04/22 03:48:39;;;;;;;8.25;4.70;;;7.50;99.90;;;;;;5033640;28;20041;-75
2022/04/22 03:51:05;;;;;;;11.00;5.35;;;7.50;99.90;;;;;;5033322;28;20467;-75
2022/04/22 03:53:34;;;;;;;9.43;4.95;;;7.50;99.90;;;;;;5033635;28;20524;-75
2022/04/22 03:58:10;;;;;;;13.40;5.25;;;7.50;99.90;;;;;;5033761;28;20028;-75
2022/04/22 03:58:48;;;;;;;9.55;5.28;;;7.50;99.90;;;;;;5033203;28;20108;-75
2022/04/22 04:01:13;;;;;;;11.77;5.90;;;7.50;99.90;;;;;;5032421;28;20049;-75
2022/04/22 04:03:39;;;;;;;11.80;5.75;;;7.40;99.90;;;;;;5033750;28;20105;-75
2022/04/22 04:06:07;;;;;;;9.23;5.45;;;7.40;99.90;;;;;;5034040;28;20026;-75
2022/04/22 04:08:32;;;;;;;14.60;6.47;;;7.30;99.90;;;;;;5034078;28;20018;-76
2022/04/22 04:16:14;;;;;;;;;;;7.20;99.90;;;;;;5043828;28;20017;-75
2022/04/22 04:18:41;;;;;;;12.07;5.45;;;7.20;99.90;;;;;;5033587;28;20401;-75
2022/04/22 04:23:52;;;;;;;12.43;6.20;;;7.10;99.90;;;;;;5034470;28;20064;-76
2022/04/22 04:26:21;;;;;;;17.50;6.55;;;7.00;99.90;;;;;;5034106;28;20540;-76
2022/04/22 04:28:50;;;;;;;15.52;7.00;;;7.00;99.90;;;;;;5045273;28;20026;-77
2022/04/22 04:31:16;;;;;;;12.95;6.47;;;7.00;99.90;;;;;;5033391;28;20086;-77
2022/04/22 04:33:45;;;;;;;15.10;7.70;;;7.00;99.90;;;;;;5017308;28;20057;-77
2022/04/22 04:36:12;;;;;;;12.93;6.97;;;7.00;99.90;;;;;;5036975;28;20030;-77
2022/04/22 04:38:42;;;;;;;15.73;8.18;;;6.90;99.90;;;;;;5036854;28;20028;-77
2022/04/22 04:41:09;;;;;;;17.52;7.82;;;7.00;99.90;;;;;;5036996;28;20029;-77
2022/04/22 04:43:35;;;;;;;12.25;7.60;;;7.00;99.90;;;;;;5036654;28;20018;-75
2022/04/22 04:46:02;;;;;;;17.55;7.35;;;7.00;99.90;;;;;;5036291;28;20033;-75
2022/04/22 04:48:28;;;;;;;16.50;8.25;;;6.90;99.90;;;;;;5036481;28;20036;-75
2022/04/22 04:50:55;;;;;;;16.77;7.00;;;6.90;99.90;;;;;;5036225;28;20029;-76
2022/04/22 04:53:25;;;;;;;15.52;7.97;;;7.00;99.90;;;;;;5036482;28;20101;-76
2022/04/22 04:55:52;;;;;;;14.80;8.07;;;6.90;99.90;;;;;;5036603;28;20116;-76
2022/04/22 04:58:18;;;;;;;14.85;7.68;;;7.00;99.90;;;;;;5034913;28;20036;-75
2022/04/22 05:00:45;;;;;;;23.10;8.05;;;7.00;99.90;;;;;;5019458;28;20025;-75
2022/04/22 05:03:13;;;;;;;11.68;7.50;;;7.00;99.90;;;;;;5036275;28;20025;-76
2022/04/22 05:05:39;;;;;;;13.48;7.85;;;7.00;99.90;;;;;;5036249;28;20025;-75
2022/04/22 05:08:06;;;;;;;17.35;7.68;;;7.00;99.90;;;;;;5036477;28;20026;-76
2022/04/22 05:10:34;;;;;;;15.77;7.78;;;7.00;99.90;;;;;;5036094;28;20475;-76
2022/04/22 05:13:00;;;;;;;13.45;7.60;;;7.00;99.90;;;;;;5035971;28;20021;-76
2022/04/22 05:15:26;;;;;;;15.90;7.30;;;7.00;99.90;;;;;;5036465;28;20148;-76
2022/04/22 05:17:53;;;;;;;14.38;8.50;;;7.00;99.90;;;;;;5035857;28;20035;-76
2022/04/22 05:20:20;;;;;;;22.15;8.23;;;7.00;99.90;;;;;;5035904;28;20056;-76
2022/04/22 05:22:46;;;;;;;14.77;8.20;;;7.00;99.90;;;;;;5036016;28;20506;-76
2022/04/22 05:25:14;;;;;;;17.40;8.10;;;7.00;99.90;;;;;;5035823;28;20425;-76
2022/04/22 05:27:40;;;;;;;17.70;8.45;;;7.10;99.90;;;;;;5035602;28;20096;-76
2022/04/22 05:32:51;;;;;;;15.55;8.25;;;7.10;99.90;;;;;;5036230;28;20076;-76
2022/04/22 05:35:20;;;;;;;16.95;7.80;;;7.20;99.90;;;;;;5035732;28;20108;-76
2022/04/22 05:37:57;;;;;;;17.38;7.95;;;7.20;99.90;;;;;;5038014;28;20041;-75
2022/04/22 05:40:25;;;;;;;18.08;7.53;;;7.30;99.90;;;;;;5046200;28;20091;-77
2022/04/22 05:42:52;;;;;;;19.23;7.53;;;7.30;99.90;;;;;;5036041;28;20083;-75
2022/04/22 05:45:20;;;;;;;17.38;8.43;;;7.30;99.90;;;;;;5016448;28;20025;-75
2022/04/22 05:47:45;;;;;;;19.42;8.77;;;7.30;99.90;;;;;;5035739;28;20029;-76
2022/04/22 05:50:12;;;;;;;18.40;7.85;;;7.30;99.90;;;;;;5035750;28;20026;-75
2022/04/22 05:52:39;;;;;;;20.35;7.75;;;7.50;99.90;;;;;;5035277;28;20025;-75
2022/04/22 05:55:07;;;;;;;15.27;6.95;;;7.50;99.90;;;;;;5035827;28;20029;-75
2022/04/22 05:57:33;;;;;;;19.40;7.80;;;7.50;99.90;;;;;;5038453;28;20029;-75
2022/04/22 06:00:00;;;;;;;16.63;7.57;;;7.60;99.90;;;;;;5038838;28;20027;-75
2022/04/22 06:02:26;;;;;;;16.75;7.45;;;7.60;99.90;;;;;;5036544;28;20036;-75
2022/04/22 06:04:52;;;;;;;13.73;6.57;;;7.70;99.90;;;;;;5035037;28;20026;-76
2022/04/22 06:07:19;;;;;;;16.88;7.03;;;7.70;99.90;;;;;;5033516;28;20026;-75
2022/04/22 06:12:28;;;;;;;14.25;6.80;;;7.80;99.90;;;;;;5034970;28;20076;-76
2022/04/22 06:14:54;;;;;;;11.23;6.93;;;7.80;99.90;;;;;;5035031;28;20452;-76
2022/04/22 06:17:20;;;;;;;11.25;6.13;;;7.90;99.90;;;;;;5034600;28;20060;-75
2022/04/22 06:19:45;;;;;;;14.57;7.05;;;8.00;99.90;;;;;;5034520;28;20029;-75
2022/04/22 06:22:11;;;;;;;12.95;6.20;;;8.10;99.90;;;;;;5034703;28;20034;-75
2022/04/22 06:24:37;;;;;;;12.00;6.05;;;8.10;99.90;;;;;;5035222;28;20025;-76
2022/04/22 06:27:03;;;;;;;15.80;6.88;;;8.20;99.90;;;;;;5035070;28;20160;-76
2022/04/22 06:29:28;;;;;;;12.25;6.88;;;8.20;99.90;;;;;;5034408;28;20033;-74
2022/04/22 06:31:54;;;;;;;16.35;6.30;;;8.20;99.90;;;;;;5034588;28;20109;-73
2022/04/22 06:34:20;;;;;;;13.10;6.43;;;8.30;99.90;;;;;;5035204;28;20390;-75
2022/04/22 06:36:46;;;;;;;14.88;6.65;;;8.40;99.90;;;;;;5035186;28;20040;-74
2022/04/22 06:39:13;;;;;;;11.15;6.43;;;8.50;99.90;;;;;;5035523;28;20040;-76
2022/04/22 06:47:09;;;;;;;13.75;6.10;;;8.70;99.90;;;;;;5034856;28;20044;-75
2022/04/22 06:49:35;;;;;;;13.77;5.85;;;8.80;99.90;;;;;;5039359;28;20072;-75
2022/04/22 06:52:01;;;;;;;12.02;5.75;;;9.00;99.90;;;;;;5044043;28;20021;-75
2022/04/22 06:54:27;;;;;;;18.45;6.22;;;9.00;99.90;;;;;;5034518;28;20108;-75
2022/04/22 06:56:53;;;;;;;12.35;5.88;;;9.10;99.90;;;;;;5034378;28;20032;-76
2022/04/22 06:59:21;;;;;;;12.77;6.20;;;9.20;99.90;;;;;;5035090;28;20029;-74
2022/04/22 07:01:47;;;;;;;16.35;6.68;;;9.20;99.90;;;;;;5034659;28;20053;-75
2022/04/22 07:04:14;;;;;;;9.80;5.72;;;9.20;99.90;;;;;;5033691;28;20118;-75
2022/04/22 07:06:42;;;;;;;12.40;5.60;;;9.20;99.90;;;;;;5034356;28;20029;-75
2022/04/22 07:09:10;;;;;;;12.85;5.53;;;9.30;99.90;;;;;;5034077;28;20067;-75
2022/04/22 07:11:38;;;;;;;11.77;5.72;;;9.40;99.90;;;;;;5034315;28;20494;-75
2022/04/22 07:14:04;;;;;;;16.35;5.82;;;9.60;99.90;;;;;;5033802;28;20029;-76
2022/04/22 07:16:30;;;;;;;14.10;6.53;;;9.80;99.90;;;;;;5033709;28;20036;-75
2022/04/22 07:18:57;;;;;;;16.00;5.95;;;9.90;99.90;;;;;;5033359;28;20017;-75
2022/04/22 07:21:23;;;;;;;13.93;5.93;;;9.90;99.90;;;;;;5033638;28;20105;-76
2022/04/22 07:23:49;;;;;;;8.98;5.45;;;10.00;99.90;;;;;;5033690;28;20029;-76
2022/04/22 07:26:18;;;;;;;8.95;5.90;;;10.10;99.90;;;;;;5015695;28;20071;-75
2022/04/22 07:28:46;;;;;;;9.27;5.72;;;10.20;99.90;;;;;;5033707;28;20018;-75
2022/04/22 07:31:12;;;;;;;14.95;5.70;;;10.30;99.90;;;;;;5033576;28;20061;-75
2022/04/22 07:33:37;;;;;;;10.63;6.03;;;10.40;99.90;;;;;;5033350;28;20025;-76
2022/04/22 07:36:03;;;;;;;16.40;6.30;;;10.40;99.90;;;;;;5033679;28;20151;-75
2022/04/22 07:38:29;;;;;;;12.77;5.35;;;10.40;99.90;;;;;;5033485;28;20022;-75
2022/04/22 07:40:55;;;;;;;10.73;5.57;;;10.50;99.90;;;;;;5033537;28;20446;-74
2022/04/22 07:48:53;;;;;;;13.65;5.63;;;10.80;99.90;;;;;;5033931;28;20048;-75
2022/04/22 07:51:19;;;;;;;14.32;5.50;;;10.80;99.90;;;;;;5031472;28;20030;-76
2022/04/22 07:53:45;;;;;;;12.57;5.35;;;10.90;99.90;;;;;;5031412;28;20115;-75
2022/04/22 07:56:11;;;;;;;15.00;6.03;;;11.00;99.90;;;;;;5033548;28;20053;-76
2022/04/22 07:58:37;;;;;;;12.15;5.78;;;11.00;99.90;;;;;;5033891;28;20030;-75
2022/04/22 08:01:02;;;;;;;9.50;5.63;;;11.20;99.90;;;;;;5045330;28;20049;-75
2022/04/22 08:03:28;;;;;;;12.35;6.65;;;11.20;99.90;;;;;;5036933;28;20128;-77
2022/04/22 08:05:54;;;;;;;13.05;5.82;;;11.30;99.90;;;;;;5033398;28;20033;-75
2022/04/22 08:08:19;;;;;;;12.23;5.88;;;11.20;99.90;;;;;;5034653;28;20479;-76
2022/04/22 08:10:45;;;;;;;12.15;5.82;;;11.30;99.90;;;;;;5021580;28;20033;-76
2022/04/22 08:13:11;;;;;;;14.15;6.03;;;11.40;99.90;;;;;;5046374;28;20050;-75
2022/04/22 08:15:37;;;;;;;13.95;6.35;;;11.50;99.90;;;;;;5042651;28;20100;-75
2022/04/22 08:18:04;;;;;;;11.65;7.13;;;11.60;99.90;;;;;;5035919;28;20037;-76
2022/04/22 08:20:31;;;;;;;17.40;6.32;;;11.60;99.90;;;;;;5037448;28;20029;-75
2022/04/22 08:23:00;;;;;;;11.15;6.10;;;11.70;99.90;;;;;;5037064;28;20132;-75
2022/04/22 08:25:26;;;;;;;14.70;6.03;;;11.70;99.90;;;;;;5036976;28;20064;-75
2022/04/22 08:27:52;;;;;;;11.63;5.65;;;11.90;99.90;;;;;;5035387;28;20033;-75
2022/04/22 08:30:18;;;;;;;15.27;6.20;;;12.10;99.90;;;;;;5019196;28;20475;-76
2022/04/22 08:32:44;;;;;;;12.45;6.70;;;12.30;99.90;;;;;;5037135;28;20029;-76
2022/04/22 08:35:10;;;;;;;15.57;5.97;;;12.30;99.90;;;;;;5036794;28;20512;-76
2022/04/22 08:37:37;;;;;;;11.98;6.63;;;12.40;99.90;;;;;;5018903;28;20034;-75
2022/04/22 08:40:05;;;;;;;10.93;6.22;;;12.40;99.90;;;;;;5037624;28;20379;-75
2022/04/22 08:42:37;;;;;;;11.30;6.65;;;12.50;99.90;;;;;;5036635;28;20546;-74
2022/04/22 08:45:05;;;;;;;10.32;7.07;;;12.60;99.90;;;;;;5037126;28;20033;-75
2022/04/22 08:50:19;;;;;;;17.10;6.68;;;12.80;99.90;;;;;;5037451;28;20036;-76
2022/04/22 08:52:56;;;;;;;12.88;6.63;;;12.90;99.90;;;;;;5037220;28;20025;-75
2022/04/22 08:55:23;;;;;;;11.40;5.70;;;13.00;99.90;;;;;;5019904;28;20029;-73
2022/04/22 08:57:49;;;;;;;10.85;6.00;;;13.20;99.90;;;;;;5047795;28;20040;-75
2022/04/22 09:00:16;;;;;;;10.07;5.90;;;13.20;99.90;;;;;;5043202;28;20024;-74
2022/04/22 09:02:42;;;;;;;12.85;6.00;;;13.30;99.90;;;;;;5055636;28;20136;-73
2022/04/22 09:05:09;;;;;;;10.55;5.75;;;13.20;99.90;;;;;;5056040;28;20059;-72
2022/04/22 09:07:37;;;;;;;14.75;5.93;;;13.30;99.90;;;;;;5037070;28;20021;-73
2022/04/22 09:10:02;;;;;;;13.77;6.43;;;13.40;99.90;;;;;;5049906;28;20414;-73
2022/04/22 09:12:28;;;;;;;12.85;5.65;;;13.30;99.90;;;;;;5055225;28;20025;-73
2022/04/22 09:14:56;;;;;;;16.92;6.57;;;13.50;99.90;;;;;;5050784;28;20543;-73
2022/04/22 09:17:28;;;;;;;11.63;6.30;;;13.60;99.90;;;;;;5036694;28;20045;-73
2022/04/22 09:19:57;;;;;;;11.45;6.10;;;13.80;99.90;;;;;;5035784;28;20021;-74
2022/04/22 09:22:27;;;;;;;13.27;6.53;;;13.80;99.90;;;;;;5035828;28;20060;-73
2022/04/22 09:24:59;;;;;;;12.93;6.28;;;13.70;99.90;;;;;;5036461;28;20032;-74
2022/04/22 09:27:33;;;;;;;9.00;5.65;;;13.70;99.90;;;;;;5037147;28;20537;-74
2022/04/22 09:30:00;;;;;;;10.45;5.43;;;13.70;99.90;;;;;;5036295;28;20026;-75
2022/04/22 09:32:39;;;;;;;15.02;5.93;;;13.90;99.90;;;;;;5032755;28;20059;-74
2022/04/22 09:35:20;;;;;;;8.85;5.68;;;14.00;99.90;;;;;;5054827;28;20099;-76
2022/04/22 09:43:37;;;;;;;10.95;6.05;;;14.80;99.90;;;;;;5054292;28;20524;-74
2022/04/22 09:46:03;;;;;;;15.38;6.45;;;15.00;99.90;;;;;;5054393;28;20033;-76
2022/04/22 09:48:46;;;;;;;10.57;6.18;;;15.20;99.90;;;;;;5036112;28;20784;-75
2022/04/22 09:51:24;;;;;;;15.55;5.85;;;15.20;99.90;;;;;;5032912;28;20068;-74
2022/04/22 09:54:10;;;;;;;9.23;4.93;;;15.20;99.90;;;;;;5053299;28;20056;-74
2022/04/22 09:56:38;;;;;;;17.77;5.80;;;15.30;99.90;;;;;;5052519;28;20025;-72
2022/04/22 09:59:23;;;;;;;16.20;6.05;;;15.40;99.90;;;;;;5054135;28;20033;-74
2022/04/22 10:01:49;;;;;;;16.33;5.78;;;15.50;99.90;;;;;;5052213;28;20092;-77
2022/04/22 10:04:17;;;;;;;10.02;5.10;;;15.60;99.90;;;;;;5053705;28;20110;-76
2022/04/22 10:06:44;;;;;;;9.30;5.78;;;15.70;99.90;;;;;;5053560;28;20480;-76
2022/04/22 10:09:11;;;;;;;8.27;4.90;;;15.70;99.90;;;;;;5036142;28;20028;-76
2022/04/22 10:11:39;;;;;;;11.88;5.78;;;15.80;99.90;;;;;;5053766;28;20092;-74
2022/04/22 10:14:09;;;;;;;12.68;5.40;;;15.70;99.90;;;;;;5050242;28;20025;-74
2022/04/22 10:16:38;;;;;;;12.38;5.13;;;15.70;99.90;;;;;;5038869;28;20075;-75
2022/04/22 10:19:05;;;;;;;9.30;5.32;;;15.60;99.90;;;;;;5035014;28;20024;-75
2022/04/22 10:21:31;;;;;;;14.07;5.35;;;15.70;99.90;;;;;;5037398;28;20032;-75
2022/04/22 10:23:58;;;;;;;11.50;5.18;;;15.80;99.90;;;;;;5047151;28;20053;-75
2022/04/22 10:26:23;;;;;;;10.52;4.95;;;16.00;99.90;;;;;;5035784;28;20021;-76
2022/04/22 10:28:50;;;;;;;10.43;5.35;;;16.10;99.90;;;;;;5033057;28;20036;-75
2022/04/22 10:31:16;;;;;;;9.55;5.05;;;16.20;99.90;;;;;;5049223;28;20387;-75
2022/04/22 10:33:44;;;;;;;10.13;5.60;;;16.50;99.90;;;;;;5052453;28;20021;-76
2022/04/22 10:36:17;;;;;;;10.68;5.60;;;16.70;99.90;;;;;;5052822;28;20028;-76
2022/04/22 10:38:47;;;;;;;13.10;6.35;;;16.90;99.90;;;;;;5049154;28;20616;-76
2022/04/22 10:41:22;;;;;;;13.48;5.63;;;17.00;99.90;;;;;;5053338;28;20484;-76
2022/04/22 10:49:37;;;;;;;7.38;4.88;;;17.30;99.90;;;;;;5051292;28;20082;-75
2022/04/22 10:52:10;;;;;;;8.13;5.40;;;17.20;99.90;;;;;;5033409;28;20078;-75
2022/04/22 10:54:51;;;;;;;12.65;5.25;;;17.20;99.90;;;;;;5051814;28;20470;-75
2022/04/22 10:57:21;;;;;;;9.88;4.90;;;17.10;99.90;;;;;;5051476;28;20075;-75
2022/04/22 11:00:07;;;;;;;11.10;5.25;;;16.90;99.90;;;;;;5049416;28;20028;-75
2022/04/22 11:02:37;;;;;;;6.60;4.47;;;16.90;99.90;;;;;;5051697;28;20049;-75
2022/04/22 11:05:18;;;;;;;12.40;5.43;;;17.00;99.90;;;;;;5051550;28;20462;-75
2022/04/22 11:08:04;;;;;;;9.25;4.68;;;17.10;99.90;;;;;;5053341;28;20017;-75
2022/04/22 11:10:48;;;;;;;9.70;4.32;;;17.20;99.90;;;;;;5051382;28;20021;-75
2022/04/22 11:13:43;;;;;;;10.82;4.93;;;17.30;99.90;;;;;;5050195;28;20072;-75
2022/04/22 11:16:28;;;;;;;9.63;5.30;;;17.40;99.90;;;;;;5051963;28;20028;-75
2022/04/22 11:19:19;;;;;;;9.35;5.38;;;17.30;99.90;;;;;;5052161;28;20021;-74
2022/04/22 11:21:47;;;;;;;14.75;4.82;;;17.30;99.90;;;;;;5050864;28;20049;-74
2022/04/22 11:24:23;;;;;;;7.75;5.18;;;17.40;99.90;;;;;;5052346;28;20053;-74
2022/04/22 11:26:48;;;;;;;11.10;5.40;;;17.50;99.90;;;;;;5033179;28;20101;-74
2022/04/22 11:29:15;;;;;;;8.40;4.50;;;17.60;99.90;;;;;;5052807;28;20118;-74
2022/04/22 11:31:59;;;;;;;8.90;5.13;;;17.80;99.90;;;;;;5035129;28;20308;-74
2022/04/22 11:34:46;;;;;;;8.73;4.72;;;17.80;99.90;;;;;;5041696;28;20025;-75
2022/04/22 11:37:20;;;;;;;11.98;5.53;;;17.80;99.90;;;;;;5053886;28;20028;-75
2022/04/22 11:39:50;;;;;;;10.30;4.55;;;17.80;99.90;;;;;;5050839;28;20022;-74
2022/04/22 11:42:19;;;;;;;12.32;5.47;;;17.50;99.90;;;;;;5046612;28;20037;-75
2022/04/22 11:45:02;;;;;;;7.85;4.88;;;17.40;99.90;;;;;;5054552;28;20023;-75
2022/04/22 11:47:28;;;;;;;7.22;4.70;;;17.50;99.90;;;;;;5055902;28;20029;-75
2022/04/22 11:49:54;;;;;;;7.88;4.60;;;17.70;99.90;;;;;;5037826;28;20079;-75
2022/04/22 11:52:21;;;;;;;8.43;5.00;;;17.90;99.90;;;;;;5055452;28;20398;-75
2022/04/22 11:54:46;;;;;;;7.45;4.50;;;18.00;99.90;;;;;;5038945;28;20017;-75
2022/04/22 11:57:12;;;;;;;11.23;5.05;;;18.00;99.90;;;;;;5056498;28;20021;-75
2022/04/22 11:59:38;;;;;;;9.45;4.45;;;18.00;99.90;;;;;;5056210;28;20162;-75
2022/04/22 12:10:27;;;;;;;8.05;3.85;;;18.60;99.90;;;;;;5056030;28;20090;-74
2022/04/22 12:12:56;;;;;;;10.20;4.60;;;18.50;99.90;;;;;;5056189;28;20398;-76
2022/04/22 12:15:22;;;;;;;7.00;4.45;;;18.40;99.90;;;;;;5036366;28;20536;-73
2022/04/22 12:17:48;;;;;;;11.18;4.72;;;18.20;99.90;;;;;;5056438;28;20025;-74
2022/04/22 12:20:15;;;;;;;7.53;4.35;;;18.00;99.90;;;;;;5056711;28;20021;-74
2022/04/22 12:22:41;;;;;;;9.60;3.60;;;17.90;99.90;;;;;;5051753;28;20017;-75
2022/04/22 12:25:19;;;;;;;6.97;4.10;;;18.10;99.90;;;;;;5053985;28;20488;-75
2022/04/22 12:28:12;;;;;;;7.40;4.20;;;18.20;99.90;;;;;;5055522;28;20009;-74
2022/04/22 12:30:40;;;;;;;8.80;4.63;;;18.40;99.70;;;;;;5053930;28;20020;-74
2022/04/22 12:33:06;;;;;;;7.05;4.40;;;18.60;99.40;;;;;;5036452;28;20078;-74
2022/04/22 12:35:32;;;;;;;9.63;4.88;;;18.70;99.00;;;;;;5055549;28;20052;-75
2022/04/22 12:38:04;;;;;;;7.95;5.20;;;18.60;98.80;;;;;;5055541;28;20079;-75
2022/04/22 12:40:44;;;;;;;11.20;4.47;;;18.40;99.20;;;;;;5054083;28;20108;-74
2022/04/22 12:43:32;;;;;;;12.10;4.53;;;18.30;99.90;;;;;;5056380;28;20079;-74
2022/04/22 12:52:08;;;;;;;9.25;4.82;;;18.10;99.90;;;;;;5053827;28;19911;-73
2022/04/22 12:54:35;;;;;;;11.45;5.35;;;18.00;99.90;;;;;;5051688;28;20104;-75
2022/04/22 12:57:00;;;;;;;7.97;4.97;;;17.90;99.90;;;;;;5036580;28;20057;-74
2022/04/22 12:59:52;;;;;;;10.57;5.40;;;17.70;99.90;;;;;;5054717;28;20049;-74
2022/04/22 13:02:25;;;;;;;9.73;4.60;;;17.50;99.90;;;;;;5052499;28;20021;-73
2022/04/22 13:04:55;;;;;;;8.45;4.75;;;17.50;99.90;;;;;;5054690;28;20116;-73
2022/04/22 13:07:22;;;;;;;7.03;4.57;;;17.40;99.90;;;;;;5054328;28;20105;-73
2022/04/22 13:09:48;;;;;;;5.68;3.90;;;17.50;99.90;;;;;;5054800;28;20041;-75
2022/04/22 13:12:14;;;;;;;9.48;4.28;;;17.50;99.90;;;;;;5055130;28;20028;-74
2022/04/22 13:14:40;;;;;;;6.13;4.40;;;17.70;99.90;;;;;;5055360;28;20025;-74
2022/04/22 13:17:06;;;;;;;6.05;3.80;;;18.00;99.90;;;;;;5056057;28;20107;-74
2022/04/22 13:19:32;;;;;;;5.40;3.30;;;18.00;99.90;;;;;;5056975;28;20044;-74
2022/04/22 13:21:58;;;;;;;6.13;3.13;;;18.00;99.90;;;;;;5057828;28;20530;-74
2022/04/22 13:24:24;;;;;;;5.65;3.63;;;17.90;99.90;;;;;;5056387;28;20025;-74
2022/04/22 13:26:49;;;;;;;7.07;3.20;;;18.10;99.90;;;;;;5056196;28;20029;-74
2022/04/22 13:29:16;;;;;;;6.07;2.95;;;18.40;99.90;;;;;;5055796;28;20104;-74
2022/04/22 13:31:41;;;;;;;6.60;3.00;;;18.40;99.20;;;;;;5049363;28;20352;-74
2022/04/22 13:34:07;;;;;;;6.07;3.10;;;18.40;99.50;;;;;;5043291;28;20026;-75
2022/04/22 13:36:35;;;;;;;4.88;3.40;;;18.30;98.90;;;;;;5036023;28;20029;-72
2022/04/22 13:39:00;;;;;;;6.35;2.60;;;18.20;99.30;;;;;;5035319;28;20152;-72
2022/04/22 13:41:26;;;;;;;5.60;3.05;;;18.20;99.90;;;;;;5043589;28;20063;-73
2022/04/22 13:43:51;;;;;;;5.32;2.95;;;18.10;99.70;;;;;;5055301;28;20025;-72
2022/04/22 13:54:30;;;;;;;8.90;3.45;;;18.40;99.90;;;;;;5055305;28;20032;-74
2022/04/22 13:56:55;;;;;;;4.63;3.33;;;18.30;99.80;;;;;;5055033;28;20036;-73
2022/04/22 13:59:21;;;;;;;6.38;3.15;;;18.30;99.80;;;;;;5052219;28;20029;-73
2022/04/22 14:01:46;;;;;;;7.28;2.90;;;18.20;99.20;;;;;;5048862;28;20033;-72